Time;durP1;ratioP1;P1;durP2;ratioP2;P2;SDS_P1;SDS_P2;PMS_P1;PMS_P2;Temp;Humidity;BMP_temperature;BMP_pressure;BME280_temperature;BME280_humidity;BME280_pressure;Samples;Min_cycle;Max_cycle;Signal;HPM_P1;HPM_P2
2023/04/12 00:00:17;;;;;;;5.10;2.43;;;7.40;38.40;;;;;;5048382;28;46452;-65
2023/04/12 00:02:43;;;;;;;7.40;2.43;;;7.50;38.40;;;;;;5052063;28;46492;-66
2023/04/12 00:05:10;;;;;;;8.03;2.50;;;7.50;38.40;;;;;;5049883;28;47182;-65
2023/04/12 00:07:39;;;;;;;7.33;2.00;;;7.50;38.40;;;;;;5050262;28;46527;-66
2023/04/12 00:10:08;;;;;;;12.00;2.40;;;7.50;38.40;;;;;;5049540;28;46393;-65
2023/04/12 00:12:34;;;;;;;7.03;2.50;;;7.50;38.40;;;;;;5048201;28;46382;-65
2023/04/12 00:15:00;;;;;;;6.17;2.60;;;7.50;38.30;;;;;;5051338;28;46398;-66
2023/04/12 00:17:26;;;;;;;5.20;2.23;;;7.50;38.40;;;;;;5051993;28;46311;-66
2023/04/12 00:19:51;;;;;;;4.70;2.10;;;7.60;38.50;;;;;;5055191;28;46295;-65
2023/04/12 00:22:17;;;;;;;8.10;2.40;;;7.50;38.40;;;;;;5050685;28;46648;-66
2023/04/12 00:24:43;;;;;;;6.60;2.43;;;7.60;38.50;;;;;;5048519;28;46365;-66
2023/04/12 00:27:08;;;;;;;5.67;2.03;;;7.60;38.60;;;;;;5055355;28;46385;-65
2023/04/12 00:29:34;;;;;;;5.70;2.30;;;7.60;38.60;;;;;;5051672;28;46324;-66
2023/04/12 00:32:00;;;;;;;5.43;2.10;;;7.60;38.70;;;;;;5052535;28;46389;-66
2023/04/12 00:34:27;;;;;;;2.70;1.80;;;7.60;38.70;;;;;;5048129;28;46511;-66
2023/04/12 00:36:53;;;;;;;4.77;1.90;;;7.60;38.50;;;;;;5052754;28;46469;-66
2023/04/12 00:39:18;;;;;;;8.10;2.20;;;7.60;38.50;;;;;;5049009;28;46485;-65
2023/04/12 00:41:44;;;;;;;5.37;2.13;;;7.60;38.60;;;;;;5058528;28;46412;-65
2023/04/12 00:44:10;;;;;;;5.10;1.80;;;7.60;38.80;;;;;;5052178;28;47065;-66
2023/04/12 00:46:36;;;;;;;5.20;2.13;;;7.60;39.00;;;;;;5050820;28;46382;-66
2023/04/12 00:49:02;;;;;;;8.60;3.13;;;7.60;39.20;;;;;;5048971;28;46496;-66
2023/04/12 00:51:32;;;;;;;3.13;1.90;;;7.70;39.20;;;;;;5050423;28;46563;-65
2023/04/12 00:53:58;;;;;;;4.40;1.87;;;7.70;38.90;;;;;;5050303;28;47071;-65
2023/04/12 00:56:28;;;;;;;7.20;2.33;;;7.70;38.80;;;;;;5051684;28;46121;-65
2023/04/12 00:58:55;;;;;;;6.40;2.17;;;7.80;38.50;;;;;;5043490;28;46407;-66
2023/04/12 01:01:21;;;;;;;8.90;2.27;;;7.80;38.50;;;;;;5051007;28;45939;-65
2023/04/12 01:03:49;;;;;;;5.53;2.10;;;7.90;38.30;;;;;;5046125;28;47089;-65
2023/04/12 01:06:54;;;;;;;7.53;2.10;;;7.90;38.30;;;;;;5050820;28;46322;-65
2023/04/12 01:09:35;;;;;;;11.00;1.77;;;7.90;38.50;;;;;;5047794;28;46662;-65
2023/04/12 01:12:15;;;;;;;6.97;1.83;;;7.90;38.70;;;;;;5053697;28;46413;-65
2023/04/12 01:15:02;;;;;;;3.03;1.77;;;7.80;38.80;;;;;;5049036;28;47992;-66
2023/04/12 01:17:36;;;;;;;6.30;1.93;;;7.80;38.70;;;;;;5049111;28;46322;-65
2023/04/12 01:20:15;;;;;;;3.03;1.80;;;7.80;38.90;;;;;;5049779;28;46418;-65
2023/04/12 01:23:13;;;;;;;5.67;2.30;;;7.80;39.20;;;;;;5051253;28;46354;-65
2023/04/12 01:26:05;;;;;;;5.10;2.40;;;7.80;39.60;;;;;;5051333;28;46617;-66
2023/04/12 01:28:36;;;;;;;6.93;2.20;;;7.80;39.90;;;;;;5047039;28;45800;-66
2023/04/12 01:31:03;;;;;;;4.43;2.30;;;7.70;39.90;;;;;;5046526;28;46375;-66
2023/04/12 01:33:30;;;;;;;8.90;1.90;;;7.70;40.20;;;;;;5049486;28;46527;-66
2023/04/12 01:36:09;;;;;;;6.70;2.00;;;7.70;40.40;;;;;;5048109;28;46756;-66
2023/04/12 01:38:35;;;;;;;12.37;2.27;;;7.70;40.50;;;;;;5048893;28;46386;-66
2023/04/12 01:41:01;;;;;;;2.47;1.50;;;7.70;40.70;;;;;;5054433;28;46334;-65
2023/04/12 01:43:27;;;;;;;4.43;2.20;;;7.70;40.80;;;;;;5051371;28;46053;-66
2023/04/12 01:45:53;;;;;;;5.07;2.10;;;7.70;41.00;;;;;;5050520;28;46438;-66
2023/04/12 01:48:19;;;;;;;6.23;2.27;;;7.60;41.00;;;;;;5048099;28;46473;-66
2023/04/12 01:51:13;;;;;;;5.77;2.40;;;7.60;41.30;;;;;;5047982;28;46424;-67
2023/04/12 01:53:49;;;;;;;5.83;2.33;;;7.60;41.50;;;;;;5048647;28;46355;-67
2023/04/12 01:56:17;;;;;;;3.20;2.10;;;7.60;41.70;;;;;;5051933;28;46984;-66
2023/04/12 01:58:45;;;;;;;8.13;1.97;;;7.50;41.80;;;;;;5044948;28;46382;-66
2023/04/12 02:01:14;;;;;;;3.17;1.80;;;7.50;42.10;;;;;;5049004;28;46274;-66
2023/04/12 02:03:44;;;;;;;7.07;1.97;;;7.50;42.20;;;;;;5048850;28;46364;-66
2023/04/12 02:06:10;;;;;;;4.97;2.50;;;7.50;42.20;;;;;;5049376;28;47107;-66
2023/04/12 02:08:36;;;;;;;5.23;2.50;;;7.50;42.20;;;;;;5051380;28;46508;-65
2023/04/12 02:11:09;;;;;;;7.77;2.07;;;7.50;42.20;;;;;;5047689;28;46604;-66
2023/04/12 02:13:35;;;;;;;4.93;2.60;;;7.60;42.50;;;;;;5046316;28;46394;-66
2023/04/12 02:16:01;;;;;;;6.87;2.10;;;7.60;42.70;;;;;;5049115;28;46641;-64
2023/04/12 02:18:27;;;;;;;6.30;2.87;;;7.50;42.90;;;;;;5045313;28;46344;-66
2023/04/12 02:20:53;;;;;;;4.83;2.17;;;7.40;43.60;;;;;;5051162;28;46420;-66
2023/04/12 02:23:18;;;;;;;7.27;2.60;;;7.40;43.80;;;;;;5055094;28;46282;-65
2023/04/12 02:25:45;;;;;;;4.73;2.30;;;7.50;43.60;;;;;;5054158;28;46304;-66
2023/04/12 02:28:14;;;;;;;6.77;2.50;;;7.50;43.70;;;;;;5048942;28;46365;-66
2023/04/12 02:30:42;;;;;;;6.33;2.50;;;7.50;43.90;;;;;;5047333;28;46358;-66
2023/04/12 02:33:08;;;;;;;6.30;2.03;;;7.40;45.40;;;;;;5047696;28;45891;-66
2023/04/12 02:35:35;;;;;;;6.30;2.27;;;7.40;44.50;;;;;;5049082;28;46367;-66
2023/04/12 02:38:02;;;;;;;6.70;2.03;;;7.50;44.40;;;;;;5056402;28;46379;-66
2023/04/12 02:40:28;;;;;;;5.50;2.23;;;7.40;44.90;;;;;;5051602;28;46313;-67
2023/04/12 02:42:54;;;;;;;6.40;2.60;;;7.40;45.20;;;;;;5051936;28;46497;-67
2023/04/12 02:45:19;;;;;;;3.37;1.97;;;7.40;45.20;;;;;;5052215;28;46390;-66
2023/04/12 02:47:45;;;;;;;7.00;2.60;;;7.40;45.70;;;;;;5052983;28;46437;-67
2023/04/12 02:50:11;;;;;;;6.93;2.60;;;7.30;46.60;;;;;;5053121;28;45937;-66
2023/04/12 02:52:36;;;;;;;7.97;2.60;;;7.30;46.60;;;;;;5056863;28;46278;-65
2023/04/12 02:55:02;;;;;;;5.83;2.70;;;7.40;46.80;;;;;;5049284;28;46451;-66
2023/04/12 02:57:28;;;;;;;6.03;1.97;;;7.30;47.70;;;;;;5046882;28;46378;-65
2023/04/12 02:59:54;;;;;;;5.13;2.57;;;7.30;47.60;;;;;;5046432;28;46358;-66
2023/04/12 03:02:20;;;;;;;5.00;2.00;;;7.40;47.70;;;;;;5053649;28;46292;-66
2023/04/12 03:04:49;;;;;;;4.07;1.70;;;7.30;47.80;;;;;;5047408;28;46587;-65
2023/04/12 03:07:17;;;;;;;3.73;1.60;;;7.30;47.70;;;;;;5048658;28;46557;-65
2023/04/12 03:09:44;;;;;;;3.60;1.57;;;7.30;47.90;;;;;;5047830;28;45792;-65
2023/04/12 03:12:09;;;;;;;8.87;1.90;;;7.30;48.60;;;;;;5049126;28;46445;-66
2023/04/12 03:14:35;;;;;;;6.73;2.03;;;7.20;48.40;;;;;;5049226;28;46465;-66
2023/04/12 03:17:00;;;;;;;7.90;2.03;;;7.20;48.90;;;;;;5055175;28;45790;-65
2023/04/12 03:19:27;;;;;;;3.23;1.83;;;7.20;49.20;;;;;;5054543;28;46414;-66
2023/04/12 03:21:53;;;;;;;3.70;1.40;;;7.20;49.10;;;;;;5052533;28;46413;-66
2023/04/12 03:24:19;;;;;;;5.00;1.67;;;7.10;49.30;;;;;;5055114;28;49157;-65
2023/04/12 03:26:45;;;;;;;3.20;1.60;;;7.10;49.70;;;;;;5056264;28;46399;-66
2023/04/12 03:29:10;;;;;;;7.10;1.93;;;7.10;49.70;;;;;;5054144;28;46449;-65
2023/04/12 03:31:36;;;;;;;3.30;1.70;;;7.10;50.10;;;;;;5052203;28;46378;-65
2023/04/12 03:34:02;;;;;;;3.57;1.77;;;7.00;50.00;;;;;;5051908;28;47957;-66
2023/04/12 03:36:29;;;;;;;4.97;1.57;;;7.00;50.00;;;;;;5056241;28;46357;-65
2023/04/12 03:38:55;;;;;;;7.70;1.50;;;7.00;50.10;;;;;;5049731;28;45775;-66
2023/04/12 03:41:22;;;;;;;6.37;1.43;;;7.00;50.00;;;;;;5053884;28;46331;-67
2023/04/12 03:43:48;;;;;;;2.57;1.27;;;7.00;50.10;;;;;;5048138;28;46549;-65
2023/04/12 03:46:14;;;;;;;2.53;1.27;;;7.00;50.00;;;;;;5056410;28;46425;-65
2023/04/12 03:48:41;;;;;;;2.57;1.20;;;7.00;50.40;;;;;;5049256;28;45779;-66
2023/04/12 03:51:07;;;;;;;5.20;1.63;;;7.00;50.10;;;;;;5050522;28;46318;-66
2023/04/12 03:53:33;;;;;;;3.27;1.60;;;7.00;50.60;;;;;;5048063;28;47640;-66
2023/04/12 03:55:59;;;;;;;3.33;1.70;;;7.00;50.80;;;;;;5055101;28;46591;-66
2023/04/12 03:58:25;;;;;;;5.73;1.30;;;7.00;50.90;;;;;;5050727;28;46458;-65
2023/04/12 04:00:50;;;;;;;9.40;1.80;;;7.00;51.10;;;;;;5048223;28;46553;-66
2023/04/12 04:03:17;;;;;;;2.50;1.37;;;7.00;51.20;;;;;;5054074;28;46152;-66
2023/04/12 04:05:42;;;;;;;2.57;1.13;;;7.00;51.70;;;;;;5050460;28;46446;-66
2023/04/12 04:08:08;;;;;;;5.07;1.60;;;7.00;52.40;;;;;;5052814;28;46405;-64
2023/04/12 04:10:34;;;;;;;3.27;1.30;;;6.90;52.70;;;;;;5053524;28;46435;-66
2023/04/12 04:13:00;;;;;;;2.20;1.10;;;6.90;54.30;;;;;;5052649;28;47101;-66
2023/04/12 04:15:26;;;;;;;2.70;1.30;;;6.90;54.60;;;;;;5050530;28;46437;-66
2023/04/12 04:17:52;;;;;;;6.23;1.27;;;6.90;55.60;;;;;;5048761;28;45947;-66
2023/04/12 04:20:19;;;;;;;5.80;1.67;;;6.90;55.60;;;;;;5051277;28;46540;-66
2023/04/12 04:22:48;;;;;;;3.60;1.20;;;6.90;55.80;;;;;;5052130;28;47040;-65
2023/04/12 04:25:14;;;;;;;4.73;1.60;;;6.90;56.60;;;;;;5058280;28;46471;-64
2023/04/12 04:27:46;;;;;;;6.63;1.60;;;6.90;56.70;;;;;;5058261;28;46290;-65
2023/04/12 04:30:14;;;;;;;5.73;1.20;;;6.90;56.80;;;;;;5052241;28;46326;-67
2023/04/12 04:32:40;;;;;;;3.33;1.30;;;6.90;57.00;;;;;;5051311;28;46664;-65
2023/04/12 04:35:06;;;;;;;2.07;1.20;;;7.00;56.70;;;;;;5055680;28;46344;-66
2023/04/12 04:37:35;;;;;;;3.30;1.40;;;7.00;56.80;;;;;;5052134;28;46376;-65
2023/04/12 04:40:07;;;;;;;2.53;1.30;;;7.00;56.60;;;;;;5053164;28;46603;-66
2023/04/12 04:42:33;;;;;;;4.37;2.00;;;7.10;57.60;;;;;;5052597;28;46254;-66
2023/04/12 04:45:01;;;;;;;4.10;1.30;;;7.10;56.40;;;;;;5046217;28;46601;-66
2023/04/12 04:47:29;;;;;;;4.67;1.10;;;7.20;56.10;;;;;;5049866;28;46370;-66
2023/04/12 04:49:56;;;;;;;4.13;1.47;;;7.20;55.90;;;;;;5050941;28;46503;-66
2023/04/12 04:52:22;;;;;;;2.53;1.10;;;7.20;56.10;;;;;;5052137;28;48756;-64
2023/04/12 04:54:48;;;;;;;3.33;1.27;;;7.20;56.00;;;;;;5058241;28;46281;-66
2023/04/12 04:57:13;;;;;;;3.00;1.37;;;7.20;55.90;;;;;;5050929;28;46389;-65
2023/04/12 04:59:39;;;;;;;2.70;1.10;;;7.20;56.20;;;;;;5053281;28;46359;-66
2023/04/12 05:02:05;;;;;;;3.53;1.40;;;7.30;56.40;;;;;;5048780;28;46452;-65
2023/04/12 05:04:30;;;;;;;4.03;1.37;;;7.30;56.10;;;;;;5050462;28;46391;-65
2023/04/12 05:06:56;;;;;;;2.63;1.10;;;7.30;56.20;;;;;;5049603;28;46445;-64
2023/04/12 05:09:21;;;;;;;5.10;1.67;;;7.30;55.90;;;;;;5050416;28;46377;-67
2023/04/12 05:11:47;;;;;;;2.13;1.30;;;7.30;56.30;;;;;;5052980;28;46433;-66
2023/04/12 05:14:12;;;;;;;3.07;1.10;;;7.20;56.40;;;;;;5048511;28;45886;-66
2023/04/12 05:16:38;;;;;;;5.90;1.43;;;7.10;56.80;;;;;;5050876;28;46155;-66
2023/04/12 05:19:04;;;;;;;2.30;1.17;;;7.10;56.90;;;;;;5053969;28;46625;-66
2023/04/12 05:21:30;;;;;;;2.80;1.30;;;7.10;56.70;;;;;;5054738;28;48218;-65
2023/04/12 05:23:55;;;;;;;2.20;1.37;;;7.10;56.80;;;;;;5053479;28;46424;-65
2023/04/12 05:26:21;;;;;;;3.43;1.50;;;7.10;57.30;;;;;;5049661;28;46432;-66
2023/04/12 05:28:46;;;;;;;4.80;1.50;;;7.10;57.40;;;;;;5048118;28;46473;-66
2023/04/12 05:31:12;;;;;;;3.57;1.43;;;7.10;57.80;;;;;;5059600;28;46374;-66
2023/04/12 05:33:38;;;;;;;5.33;1.33;;;7.00;57.70;;;;;;5047626;28;46444;-66
2023/04/12 05:36:04;;;;;;;5.80;1.50;;;7.10;57.40;;;;;;5053211;28;46468;-65
2023/04/12 05:38:30;;;;;;;2.27;1.43;;;7.20;57.50;;;;;;5050911;28;46421;-66
2023/04/12 05:40:55;;;;;;;3.40;1.70;;;7.20;57.40;;;;;;5046085;28;46372;-66
2023/04/12 05:43:21;;;;;;;6.33;2.40;;;7.30;57.00;;;;;;5054016;28;46342;-65
2023/04/12 05:45:48;;;;;;;3.43;1.70;;;7.30;57.10;;;;;;5046269;28;45865;-65
2023/04/12 05:48:14;;;;;;;5.53;1.90;;;7.30;57.00;;;;;;5051714;28;46523;-66
2023/04/12 05:50:40;;;;;;;7.77;1.93;;;7.30;57.10;;;;;;5055405;28;46434;-66
2023/04/12 05:53:05;;;;;;;4.87;1.33;;;7.30;57.10;;;;;;5047249;28;46436;-65
2023/04/12 05:55:31;;;;;;;4.13;1.73;;;7.30;57.40;;;;;;5049736;28;46433;-65
2023/04/12 05:57:57;;;;;;;6.50;1.60;;;7.30;57.60;;;;;;5049158;28;46488;-65
2023/04/12 06:00:23;;;;;;;3.10;1.50;;;7.30;57.50;;;;;;5051753;28;46876;-66
2023/04/12 06:02:49;;;;;;;8.30;1.60;;;7.30;57.70;;;;;;5048771;28;46405;-65
2023/04/12 06:05:16;;;;;;;3.40;1.37;;;7.30;57.90;;;;;;5049309;28;46478;-65
2023/04/12 06:07:46;;;;;;;4.03;1.40;;;7.30;58.00;;;;;;5050290;28;46502;-66
2023/04/12 06:10:15;;;;;;;7.10;1.70;;;7.30;57.90;;;;;;5049881;28;47210;-66
2023/04/12 06:12:40;;;;;;;4.30;1.50;;;7.30;57.80;;;;;;5050048;28;46315;-66
2023/04/12 06:15:06;;;;;;;2.23;1.43;;;7.30;58.30;;;;;;5047219;28;45987;-66
2023/04/12 06:17:32;;;;;;;3.23;1.50;;;7.20;59.90;;;;;;5050036;28;46369;-65
2023/04/12 06:19:57;;;;;;;5.40;1.80;;;7.30;60.00;;;;;;5047682;28;46277;-66
2023/04/12 06:22:23;;;;;;;4.40;1.90;;;7.30;59.90;;;;;;5048714;28;46382;-66
2023/04/12 06:24:49;;;;;;;3.77;1.80;;;7.40;59.70;;;;;;5048656;28;46546;-66
2023/04/12 06:27:15;;;;;;;2.97;1.57;;;7.50;58.80;;;;;;5051880;28;46449;-66
2023/04/12 06:29:41;;;;;;;2.87;1.67;;;7.70;58.20;;;;;;5047258;28;47425;-65
2023/04/12 06:32:06;;;;;;;2.47;1.47;;;7.80;57.60;;;;;;5048719;28;46297;-66
2023/04/12 06:34:32;;;;;;;3.47;1.70;;;7.90;57.50;;;;;;5052544;28;45916;-65
2023/04/12 06:36:58;;;;;;;3.00;1.60;;;8.00;57.40;;;;;;5048002;28;46422;-65
2023/04/12 06:39:24;;;;;;;3.57;1.60;;;8.00;57.50;;;;;;5049735;28;46587;-66
2023/04/12 06:41:49;;;;;;;4.33;2.23;;;8.00;57.60;;;;;;5047014;28;46425;-66
2023/04/12 06:44:15;;;;;;;4.33;1.77;;;8.00;57.70;;;;;;5047086;28;46370;-65
2023/04/12 06:46:41;;;;;;;2.50;1.73;;;8.00;57.40;;;;;;5049689;28;46646;-66
2023/04/12 06:49:07;;;;;;;5.20;1.70;;;8.10;57.50;;;;;;5044853;28;46386;-66
2023/04/12 06:51:36;;;;;;;5.60;2.43;;;8.10;57.50;;;;;;5046942;28;46362;-66
2023/04/12 06:54:01;;;;;;;5.67;2.30;;;8.20;57.20;;;;;;5048684;28;46319;-65
2023/04/12 06:56:27;;;;;;;7.20;3.47;;;8.20;57.20;;;;;;5055002;28;46365;-65
2023/04/12 06:58:53;;;;;;;3.90;2.23;;;8.20;57.30;;;;;;5049427;28;46420;-66
2023/04/12 07:01:18;;;;;;;4.07;2.17;;;8.30;57.30;;;;;;5052456;28;46383;-65
2023/04/12 07:03:44;;;;;;;4.93;2.50;;;8.30;57.20;;;;;;5053727;28;46442;-66
2023/04/12 07:06:10;;;;;;;3.57;2.27;;;8.30;58.20;;;;;;5050308;28;46350;-67
2023/04/12 07:08:36;;;;;;;4.37;1.70;;;8.30;57.10;;;;;;5047920;28;46872;-67
2023/04/12 07:11:02;;;;;;;6.27;1.83;;;8.30;57.30;;;;;;5048321;28;46436;-67
2023/04/12 07:13:28;;;;;;;5.23;1.87;;;8.30;57.20;;;;;;5049797;28;46460;-67
2023/04/12 07:15:54;;;;;;;4.90;1.43;;;8.40;57.20;;;;;;5051337;28;46513;-66
2023/04/12 07:18:20;;;;;;;5.23;1.93;;;8.50;57.80;;;;;;5053597;28;46491;-67
2023/04/12 07:20:52;;;;;;;4.30;1.40;;;8.50;57.00;;;;;;5052381;28;46524;-64
2023/04/12 07:23:17;;;;;;;2.20;1.50;;;8.60;56.90;;;;;;5050393;28;46527;-66
2023/04/12 07:25:43;;;;;;;3.70;1.43;;;8.60;57.00;;;;;;5052649;28;46429;-66
2023/04/12 07:28:09;;;;;;;8.20;1.30;;;8.60;57.00;;;;;;5055048;28;46521;-66
2023/04/12 07:30:35;;;;;;;3.17;1.73;;;8.70;56.90;;;;;;5052154;28;45828;-65
2023/04/12 07:33:04;;;;;;;2.90;1.40;;;8.80;56.80;;;;;;5061486;28;45806;-65
2023/04/12 07:35:30;;;;;;;4.07;1.70;;;8.90;56.90;;;;;;5057916;28;46376;-65
2023/04/12 07:37:56;;;;;;;2.70;1.43;;;8.80;57.00;;;;;;5055555;28;47250;-66
2023/04/12 07:40:22;;;;;;;4.70;1.53;;;8.80;57.10;;;;;;5049124;28;46713;-66
2023/04/12 07:42:47;;;;;;;3.70;1.30;;;8.90;56.60;;;;;;5047873;28;46405;-66
2023/04/12 07:45:13;;;;;;;3.97;1.67;;;9.00;56.90;;;;;;5052614;28;46418;-66
2023/04/12 07:47:39;;;;;;;5.00;2.00;;;8.90;56.80;;;;;;5051866;28;46437;-66
2023/04/12 07:50:05;;;;;;;3.80;1.73;;;9.00;56.60;;;;;;5050378;28;46436;-66
2023/04/12 07:52:31;;;;;;;5.50;2.10;;;9.10;57.60;;;;;;5050349;28;46452;-66
2023/04/12 07:54:57;;;;;;;5.33;2.43;;;9.20;56.20;;;;;;5051683;28;46472;-66
2023/04/12 07:57:23;;;;;;;6.03;2.43;;;9.20;55.90;;;;;;5052954;28;46437;-66
2023/04/12 07:59:49;;;;;;;3.03;1.90;;;9.30;55.60;;;;;;5046592;28;45771;-66
2023/04/12 08:02:23;;;;;;;4.57;1.90;;;9.30;56.10;;;;;;5048757;28;46269;-66
2023/04/12 08:04:55;;;;;;;7.70;1.97;;;9.20;56.30;;;;;;5049102;28;46383;-66
2023/04/12 08:07:21;;;;;;;7.00;2.10;;;9.20;56.60;;;;;;5049694;28;47320;-67
2023/04/12 08:09:47;;;;;;;3.83;1.97;;;9.20;56.60;;;;;;5051207;28;46386;-66
2023/04/12 08:12:13;;;;;;;3.60;2.20;;;9.20;56.60;;;;;;5056191;28;46340;-66
2023/04/12 08:14:38;;;;;;;5.73;3.10;;;9.30;56.50;;;;;;5061636;28;46582;-66
2023/04/12 08:17:04;;;;;;;4.73;1.70;;;9.30;56.50;;;;;;5051153;28;46558;-66
2023/04/12 08:19:30;;;;;;;3.10;1.50;;;9.20;56.90;;;;;;5052664;28;46489;-66
2023/04/12 08:21:56;;;;;;;3.47;1.93;;;9.20;57.40;;;;;;5049893;28;46441;-66
2023/04/12 08:24:21;;;;;;;2.87;1.67;;;9.10;57.70;;;;;;5051206;28;46868;-66
2023/04/12 08:26:47;;;;;;;3.70;1.60;;;9.20;57.60;;;;;;5050704;28;46374;-67
2023/04/12 08:29:13;;;;;;;3.47;1.60;;;9.30;57.50;;;;;;5058945;28;46417;-66
2023/04/12 08:31:38;;;;;;;4.13;1.80;;;9.40;57.40;;;;;;5047437;28;46404;-66
2023/04/12 08:34:04;;;;;;;2.80;1.60;;;9.50;57.20;;;;;;5051842;28;46587;-66
2023/04/12 08:36:30;;;;;;;4.90;1.70;;;9.60;56.90;;;;;;5054302;28;46420;-66
2023/04/12 08:38:59;;;;;;;5.50;1.80;;;9.60;57.00;;;;;;5050515;28;46465;-66
2023/04/12 08:41:26;;;;;;;5.07;1.70;;;9.50;57.00;;;;;;5050804;28;46469;-65
2023/04/12 08:43:51;;;;;;;4.23;1.67;;;9.70;57.00;;;;;;5050270;28;46564;-66
2023/04/12 08:46:17;;;;;;;3.07;2.00;;;9.80;56.60;;;;;;5050564;28;46558;-66
2023/04/12 08:48:48;;;;;;;4.60;1.90;;;10.00;56.70;;;;;;5049379;28;46476;-66
2023/04/12 08:51:19;;;;;;;6.03;1.67;;;10.10;55.40;;;;;;5053079;28;46425;-65
2023/04/12 08:53:45;;;;;;;4.07;1.53;;;10.20;54.90;;;;;;5046891;28;46296;-66
2023/04/12 08:56:12;;;;;;;3.30;1.90;;;10.40;54.70;;;;;;5047356;28;47351;-66
2023/04/12 08:58:47;;;;;;;4.27;1.70;;;10.60;53.80;;;;;;5051941;28;46465;-66
2023/04/12 09:01:19;;;;;;;2.63;1.53;;;10.90;52.50;;;;;;5047539;28;46474;-66
2023/04/12 09:03:45;;;;;;;2.30;1.40;;;10.90;52.40;;;;;;5048825;28;46351;-65
2023/04/12 09:06:11;;;;;;;4.67;1.60;;;10.90;52.40;;;;;;5050139;28;46666;-65
2023/04/12 09:08:50;;;;;;;2.57;1.60;;;11.00;51.70;;;;;;5049926;28;46448;-66
2023/04/12 09:11:26;;;;;;;3.43;1.73;;;11.20;51.40;;;;;;5051001;28;46483;-66
2023/04/12 09:13:54;;;;;;;2.87;1.43;;;11.30;50.30;;;;;;5049487;28;45990;-65
2023/04/12 09:16:39;;;;;;;3.17;1.50;;;11.50;50.10;;;;;;5046311;28;45951;-66
2023/04/12 09:19:05;;;;;;;3.37;1.80;;;11.40;49.30;;;;;;5051717;28;46330;-66
2023/04/12 09:21:33;;;;;;;4.17;1.50;;;11.60;48.80;;;;;;5047603;28;46514;-66
2023/04/12 09:24:08;;;;;;;3.93;1.60;;;11.70;47.90;;;;;;5051610;28;46649;-65
2023/04/12 09:26:36;;;;;;;2.43;1.30;;;11.70;47.40;;;;;;5049683;28;47154;-66
2023/04/12 09:29:03;;;;;;;2.20;1.37;;;11.70;47.30;;;;;;5050678;28;46480;-66
2023/04/12 09:31:28;;;;;;;7.00;1.60;;;12.10;46.80;;;;;;5048064;28;46463;-66
2023/04/12 09:34:20;;;;;;;3.40;1.30;;;12.30;46.10;;;;;;5051396;28;46526;-65
2023/04/12 09:36:46;;;;;;;4.23;1.57;;;12.30;44.70;;;;;;5044727;28;46490;-66
2023/04/12 09:39:11;;;;;;;8.20;2.60;;;12.50;45.00;;;;;;5048601;28;46330;-65
2023/04/12 09:41:37;;;;;;;3.83;1.60;;;12.70;43.90;;;;;;5048632;28;46534;-65
2023/04/12 09:44:03;;;;;;;3.60;1.50;;;12.80;42.70;;;;;;5048345;28;46472;-66
2023/04/12 09:46:29;;;;;;;3.20;1.30;;;13.00;43.10;;;;;;5048224;28;46512;-66
2023/04/12 09:48:57;;;;;;;2.93;1.37;;;13.20;41.80;;;;;;5053062;28;46365;-65
2023/04/12 09:51:31;;;;;;;2.13;1.20;;;13.10;41.30;;;;;;5048254;28;45836;-66
2023/04/12 09:53:59;;;;;;;3.03;1.30;;;13.20;41.30;;;;;;5051142;28;46442;-65
2023/04/12 09:56:29;;;;;;;2.40;1.40;;;13.50;41.60;;;;;;5047537;28;46357;-66
2023/04/12 09:58:59;;;;;;;2.70;1.43;;;13.40;40.10;;;;;;5050823;28;46433;-65
2023/04/12 10:01:25;;;;;;;3.13;1.40;;;13.60;40.50;;;;;;5049968;28;46527;-65
2023/04/12 10:03:52;;;;;;;2.53;1.60;;;13.50;39.90;;;;;;5050488;28;46445;-65
2023/04/12 10:06:19;;;;;;;2.60;1.43;;;13.50;40.00;;;;;;5049581;28;46987;-65
2023/04/12 10:08:45;;;;;;;2.57;1.30;;;13.60;39.70;;;;;;5049171;28;46688;-65
2023/04/12 10:11:11;;;;;;;2.83;1.30;;;13.60;39.20;;;;;;5045152;28;45955;-65
2023/04/12 10:13:38;;;;;;;1.90;1.20;;;13.50;38.70;;;;;;5043035;28;45863;-65
2023/04/12 10:16:06;;;;;;;5.27;1.40;;;13.70;39.00;;;;;;5046629;28;46497;-65
2023/04/12 10:18:36;;;;;;;4.60;1.40;;;13.80;38.20;;;;;;5046608;28;46520;-65
2023/04/12 10:21:02;;;;;;;2.13;1.30;;;13.70;37.90;;;;;;5048602;28;46446;-66
2023/04/12 10:23:28;;;;;;;5.20;1.40;;;13.60;37.80;;;;;;5050205;28;46352;-67
2023/04/12 10:25:55;;;;;;;2.40;1.30;;;13.80;37.80;;;;;;5052796;28;47345;-65
2023/04/12 10:28:21;;;;;;;6.20;1.27;;;13.90;37.30;;;;;;5052242;28;46524;-66
2023/04/12 10:30:49;;;;;;;3.13;1.63;;;13.90;37.30;;;;;;5046642;28;46468;-65
2023/04/12 10:33:17;;;;;;;3.50;1.83;;;13.90;37.40;;;;;;5048794;28;46515;-66
2023/04/12 10:35:51;;;;;;;3.93;1.90;;;14.00;37.50;;;;;;5048837;28;46518;-66
2023/04/12 10:38:17;;;;;;;3.70;1.60;;;14.10;37.30;;;;;;5046469;28;46393;-65
2023/04/12 10:41:06;;;;;;;2.00;1.30;;;14.30;37.00;;;;;;5046080;28;46323;-66
2023/04/12 10:43:31;;;;;;;2.87;1.33;;;14.40;36.40;;;;;;5046331;28;46225;-67
2023/04/12 10:46:02;;;;;;;2.20;1.23;;;14.80;36.00;;;;;;5048094;28;46620;-66
2023/04/12 10:48:30;;;;;;;2.67;1.50;;;15.00;35.00;;;;;;5048354;28;46462;-66
2023/04/12 10:51:23;;;;;;;2.97;1.50;;;15.20;34.70;;;;;;5045702;28;46373;-66
2023/04/12 10:53:50;;;;;;;4.03;1.40;;;15.30;34.10;;;;;;5047826;28;46428;-65
2023/04/12 10:56:31;;;;;;;4.37;1.80;;;15.20;33.80;;;;;;5049946;28;46412;-66
2023/04/12 10:58:58;;;;;;;2.63;1.43;;;15.10;33.80;;;;;;5048585;28;46410;-65
2023/04/12 11:01:24;;;;;;;3.13;1.80;;;15.10;34.00;;;;;;5046983;28;46442;-67
2023/04/12 11:04:14;;;;;;;2.93;1.43;;;15.10;33.50;;;;;;5047692;28;46360;-67
2023/04/12 11:07:11;;;;;;;2.77;1.70;;;15.30;33.70;;;;;;5050020;28;47187;-66
2023/04/12 11:09:41;;;;;;;4.07;1.63;;;15.40;33.40;;;;;;5040681;28;46392;-65
2023/04/12 11:12:07;;;;;;;6.40;1.80;;;15.40;33.00;;;;;;5047050;28;46425;-66
2023/04/12 11:14:35;;;;;;;2.27;1.40;;;15.40;33.30;;;;;;5049926;28;46354;-66
2023/04/12 11:17:07;;;;;;;4.20;1.60;;;15.30;34.00;;;;;;5047676;28;46428;-65
2023/04/12 11:19:35;;;;;;;2.47;1.37;;;15.50;34.00;;;;;;5043504;28;46366;-66
2023/04/12 11:22:03;;;;;;;3.60;1.77;;;15.50;33.80;;;;;;5048506;28;46468;-66
2023/04/12 11:24:29;;;;;;;4.53;1.70;;;15.50;32.90;;;;;;5049175;28;45861;-65
2023/04/12 11:26:56;;;;;;;3.10;1.63;;;15.40;33.20;;;;;;5046712;28;47028;-65
2023/04/12 11:29:25;;;;;;;4.80;2.93;;;15.50;33.40;;;;;;5044114;28;45807;-65
2023/04/12 11:31:51;;;;;;;6.80;3.60;;;15.70;32.90;;;;;;5046042;28;46548;-65
2023/04/12 11:34:17;;;;;;;8.13;3.87;;;15.90;32.40;;;;;;5050638;28;46492;-66
2023/04/12 11:36:45;;;;;;;14.67;5.40;;;16.10;32.20;;;;;;5048442;28;46378;-66
2023/04/12 11:39:11;;;;;;;10.40;4.40;;;16.10;30.50;;;;;;5049035;28;46347;-65
2023/04/12 11:41:37;;;;;;;11.80;5.17;;;16.10;31.20;;;;;;5049006;28;46665;-66
2023/04/12 11:44:02;;;;;;;4.50;1.80;;;16.00;31.40;;;;;;5048115;28;46618;-65
2023/04/12 11:46:34;;;;;;;3.80;1.70;;;15.80;31.90;;;;;;5050838;28;47287;-66
2023/04/12 11:49:00;;;;;;;4.03;1.70;;;15.80;31.90;;;;;;5051611;28;46448;-65
2023/04/12 11:51:29;;;;;;;5.30;1.80;;;16.00;31.80;;;;;;5050306;28;46266;-65
2023/04/12 11:53:56;;;;;;;3.13;1.77;;;16.20;31.30;;;;;;5049070;28;46377;-66
2023/04/12 11:56:22;;;;;;;3.90;2.33;;;16.30;30.60;;;;;;5052014;28;46404;-66
2023/04/12 11:58:48;;;;;;;2.97;1.30;;;16.30;30.60;;;;;;5050946;28;46397;-65
2023/04/12 12:01:19;;;;;;;2.90;1.70;;;16.20;31.20;;;;;;5051146;28;46460;-65
2023/04/12 12:03:46;;;;;;;3.00;1.60;;;16.20;31.50;;;;;;5051793;28;46437;-65
2023/04/12 12:06:12;;;;;;;3.43;1.90;;;16.20;31.00;;;;;;5049403;28;46357;-65
2023/04/12 12:08:38;;;;;;;3.13;1.50;;;16.60;30.90;;;;;;5052632;28;46385;-66
2023/04/12 12:11:04;;;;;;;4.50;1.60;;;16.60;30.90;;;;;;5052997;28;46326;-66
2023/04/12 12:13:50;;;;;;;4.10;1.43;;;16.50;30.80;;;;;;5051655;28;46234;-66
2023/04/12 12:16:17;;;;;;;4.10;1.90;;;16.70;31.00;;;;;;5048703;28;47199;-66
2023/04/12 12:18:44;;;;;;;3.03;1.93;;;16.80;31.10;;;;;;5047175;28;46348;-66
2023/04/12 12:21:12;;;;;;;4.23;2.40;;;16.80;31.10;;;;;;5047883;28;46437;-66
2023/04/12 12:23:41;;;;;;;4.27;2.00;;;16.80;30.60;;;;;;5048489;28;46544;-66
2023/04/12 12:26:07;;;;;;;3.40;1.40;;;17.10;30.40;;;;;;5053966;28;47149;-66
2023/04/12 12:28:39;;;;;;;3.33;1.90;;;17.40;30.00;;;;;;5055507;28;46456;-66
2023/04/12 12:31:08;;;;;;;3.03;1.57;;;17.80;29.30;;;;;;5050305;28;46465;-66
2023/04/12 12:33:38;;;;;;;7.10;1.60;;;17.50;28.90;;;;;;5050293;28;46274;-66
2023/04/12 12:36:05;;;;;;;2.90;1.10;;;17.30;29.50;;;;;;5049724;28;46397;-66
2023/04/12 12:38:38;;;;;;;2.60;1.40;;;17.20;27.90;;;;;;5047560;28;46417;-66
2023/04/12 12:41:33;;;;;;;5.33;1.30;;;16.60;28.40;;;;;;5050268;28;46370;-65
2023/04/12 12:43:59;;;;;;;4.07;1.40;;;16.30;28.70;;;;;;5040193;28;46545;-65
2023/04/12 12:46:25;;;;;;;2.90;1.47;;;16.10;28.70;;;;;;5063080;28;45997;-66
2023/04/12 12:48:51;;;;;;;3.77;1.50;;;16.50;29.00;;;;;;5056575;28;46387;-65
2023/04/12 12:51:18;;;;;;;5.23;1.20;;;16.20;29.20;;;;;;5052391;28;46389;-65
2023/04/12 12:53:44;;;;;;;2.90;1.60;;;16.00;29.50;;;;;;5047796;28;45855;-65
2023/04/12 12:56:12;;;;;;;3.10;1.30;;;15.90;30.30;;;;;;5046862;28;47318;-65